Alma, MI

3:43 PM EDT on May 29, 2015 (GMT -0400)
DPNF | | Change Station
CLOSE
Current Station
Personal Weather Station
Location: Alma, MI
Elevation: 768 ft
Nearby Weather Stations

Elev 768 ft 43.37 °N, 84.65 °W | Updated 1 minute ago

Partly Cloudy
Partly Cloudy
87.6 °F
Feels Like 91 °F
N
6.3
Wind Variable Wind from SE

Today
High -- | Low -- °F
--% Chance of Precip.
Yesterday
High -- | Low -- °F
Precip. -- in
6:02 AM 9:09 PM
Waxing Gibbous, 85% visible
Pressure 30.00 in
Visibility 10.0 miles
Clouds Mostly Cloudy 5000 ft
Mostly Cloudy 6500 ft
Heat Index 91 °F
Dew Point 67 °F
Humidity 51%
Rainfall 0.00 in
Snow Depth Not available.
UV 5 out of 12
Pollen 8.00 out of 12
Air Quality Not available.
Flu Activity Sporadic
METAR KAMN 291935Z AUTO 20008G14KT 10SM BKN050 BKN065 29/16 A3000 RMK AO2 T02870163

More Conditions Fewer Conditions

Pressure 30.00 in
Visibility 10.0 miles
Clouds Mostly Cloudy 5000 ft
Mostly Cloudy 6500 ft
Heat Index 91 °F
Dew Point 67 °F
Humidity 51%
Rainfall 0.00 in
Snow Depth Not available.
UV 5 out of 12
Pollen 8.00 out of 12
Air Quality Not available.
Flu Activity Sporadic
METAR KAMN 291935Z AUTO 20008G14KT 10SM BKN050 BKN065 29/16 A3000 RMK AO2 T02870163

More Conditions Fewer Conditions

10-Day Weather Forecast

Almanac

Astronomy

May. 29, 2015 Rise Set
Actual Time
Civil Twilight
Nautical Twilight
Astronomical Twilight
Moon
Length of Visible Light
Length of Day
Tomorrow will be .
, % of the Moon is Illuminated

Today's Extremes

State Highs State Lows

Community

WunderPhotos

Upload Photos

1,825,332 photos uploaded!

WunderBlogs® & News

Nearby

Air Quality

  Air Quality AQ Index Pollutant
Not available.

Snow Depth

Station Depth Elevation

Earthquake Activity

City Distance Mag. Time & Date
Minimum magnitude displayed is 2.5.

Coastal Water Temperatures

Place Temperature

Stations

Nearby Weather Stations

Station Location Temp. Windchill Dew Point Humidity Wind Precip. Elev Updated Type